Time;durP1;ratioP1;P1;durP2;ratioP2;P2;SDS_P1;SDS_P2;PMS_P1;PMS_P2;Temp;Humidity;BMP_temperature;BMP_pressure;BME280_temperature;BME280_humidity;BME280_pressure;Samples;Min_cycle;Max_cycle;Signal;HPM_P1;HPM_P2
2023/03/08 00:02:07;0.00;0.00;0.62;0.00;0.00;0.62;1.67;0.80;;;20.30;21.50;;;;;;2264804;61;20376;-61
2023/03/08 00:04:54;0.00;0.00;0.62;0.00;0.00;0.62;1.50;0.80;;;20.20;21.40;;;;;;2264940;61;20407;-60
2023/03/08 00:07:40;0.00;0.00;0.62;0.00;0.00;0.62;2.00;1.10;;;20.20;21.40;;;;;;2264727;61;20356;-62
2023/03/08 00:10:25;0.00;0.00;0.62;0.00;0.00;0.62;1.70;0.97;;;20.20;21.50;;;;;;2264609;61;20413;-63
2023/03/08 00:13:10;0.00;0.00;0.62;0.00;0.00;0.62;1.47;0.90;;;20.20;21.40;;;;;;2265148;61;20368;-60
2023/03/08 00:15:59;0.00;0.00;0.62;0.00;0.00;0.62;1.60;0.80;;;20.20;21.50;;;;;;2265348;61;20410;-62
2023/03/08 00:18:44;0.00;0.00;0.62;0.00;0.00;0.62;1.90;1.03;;;20.30;21.50;;;;;;2265302;61;20434;-58
2023/03/08 00:21:29;0.00;0.00;0.62;0.00;0.00;0.62;1.50;0.90;;;20.20;21.40;;;;;;2265627;61;20410;-62
2023/03/08 00:24:16;0.00;0.00;0.62;0.00;0.00;0.62;1.70;1.20;;;20.20;21.40;;;;;;2265345;61;20376;-62
2023/03/08 00:27:01;0.00;0.00;0.62;0.00;0.00;0.62;1.70;1.00;;;20.20;21.50;;;;;;2265821;61;20395;-62
2023/03/08 00:29:46;0.00;0.00;0.62;0.00;0.00;0.62;1.50;1.00;;;20.20;21.40;;;;;;2265079;61;20685;-60
2023/03/08 00:32:31;0.00;0.00;0.62;0.00;0.00;0.62;1.47;0.87;;;20.20;21.40;;;;;;2265188;61;20410;-60
2023/03/08 00:35:18;0.00;0.00;0.62;0.00;0.00;0.62;1.67;0.90;;;20.30;21.50;;;;;;2265940;61;20426;-61
2023/03/08 00:38:03;0.00;0.00;0.62;0.00;0.00;0.62;1.40;0.80;;;20.20;21.50;;;;;;2264990;61;20896;-65
2023/03/08 00:40:49;0.00;0.00;0.62;0.00;0.00;0.62;1.53;0.90;;;20.20;21.50;;;;;;2265093;61;20371;-60
2023/03/08 00:43:34;0.00;0.00;0.62;0.00;0.00;0.62;1.53;1.00;;;20.20;21.50;;;;;;2265335;61;20460;-61
2023/03/08 00:46:21;0.00;0.00;0.62;0.00;0.00;0.62;1.50;1.00;;;20.20;21.40;;;;;;2264873;61;20810;-60
2023/03/08 00:49:05;0.00;0.00;0.62;0.00;0.00;0.62;1.80;1.10;;;20.20;21.50;;;;;;2265343;61;20366;-60
2023/03/08 00:51:50;0.00;0.00;0.62;0.00;0.00;0.62;1.40;0.80;;;20.20;21.50;;;;;;2265319;61;20376;-60
2023/03/08 00:54:35;0.00;0.00;0.62;0.00;0.00;0.62;1.70;1.00;;;20.20;21.40;;;;;;2265729;61;20399;-60
2023/03/08 00:57:21;0.00;0.00;0.62;0.00;0.00;0.62;1.50;0.97;;;20.20;21.50;;;;;;2265537;61;20363;-61
2023/03/08 01:00:11;0.00;0.00;0.62;0.00;0.00;0.62;1.50;0.80;;;20.20;21.40;;;;;;2261559;61;20368;-61
2023/03/08 01:02:57;0.00;0.00;0.62;0.00;0.00;0.62;1.57;0.90;;;20.20;21.50;;;;;;2265275;61;20414;-61
2023/03/08 01:05:47;0.00;0.00;0.62;0.00;0.00;0.62;1.63;0.83;;;20.20;21.40;;;;;;2264900;61;20446;-63
2023/03/08 01:08:33;0.00;0.00;0.62;0.00;0.00;0.62;1.50;0.80;;;20.20;21.50;;;;;;2265334;61;20402;-60
2023/03/08 01:11:20;0.00;0.00;0.62;0.00;0.00;0.62;1.50;0.80;;;20.10;21.40;;;;;;2265269;61;20413;-61
2023/03/08 01:14:07;0.00;0.00;0.62;0.00;0.00;0.62;1.47;0.83;;;20.10;21.40;;;;;;2264527;61;20920;-63
2023/03/08 01:16:54;0.00;0.00;0.62;0.00;0.00;0.62;2.00;1.10;;;20.10;21.40;;;;;;2265451;61;20364;-58
2023/03/08 01:19:38;0.00;0.00;0.62;0.00;0.00;0.62;1.60;1.00;;;20.10;21.40;;;;;;2264666;61;20391;-60
2023/03/08 01:22:23;0.00;0.00;0.62;0.00;0.00;0.62;1.40;0.80;;;20.10;21.40;;;;;;2264363;61;20360;-61
2023/03/08 01:25:09;0.00;0.00;0.62;0.00;0.00;0.62;2.00;1.10;;;20.20;21.40;;;;;;2262289;61;20383;-60
2023/03/08 01:27:53;0.00;0.00;0.62;0.00;0.00;0.62;1.40;0.80;;;20.10;21.40;;;;;;2265725;61;20406;-63
2023/03/08 01:30:40;0.00;0.00;0.62;0.00;0.00;0.62;1.50;0.83;;;20.10;21.40;;;;;;2264638;61;20362;-59
2023/03/08 01:33:24;0.00;0.00;0.62;0.00;0.00;0.62;1.40;0.70;;;20.10;21.40;;;;;;2264896;61;20384;-62
2023/03/08 01:36:13;0.00;0.00;0.62;0.00;0.00;0.62;1.33;0.80;;;20.10;21.40;;;;;;2265359;61;20396;-60
2023/03/08 01:39:01;0.00;0.00;0.62;0.00;0.00;0.62;1.30;0.80;;;20.10;21.40;;;;;;2264541;61;20391;-61
2023/03/08 01:41:46;0.00;0.00;0.62;0.00;0.00;0.62;1.90;1.00;;;20.10;21.40;;;;;;2265022;61;20411;-60
2023/03/08 01:44:50;0.00;0.00;0.62;0.00;0.00;0.62;1.40;0.90;;;20.10;21.40;;;;;;2264540;61;20415;-60
2023/03/08 01:47:37;0.00;0.00;0.62;0.00;0.00;0.62;1.53;0.90;;;20.10;21.40;;;;;;2264851;61;20364;-62
2023/03/08 01:50:34;0.00;0.00;0.62;0.00;0.00;0.62;1.50;0.90;;;20.10;21.40;;;;;;2264338;61;20939;-59
2023/03/08 01:53:19;0.00;0.00;0.62;0.00;0.00;0.62;1.40;0.90;;;20.10;21.40;;;;;;2264940;61;20384;-63
2023/03/08 01:56:05;0.00;0.00;0.62;0.00;0.00;0.62;1.40;0.90;;;20.10;21.40;;;;;;2265665;61;20360;-63
2023/03/08 01:58:51;0.00;0.00;0.62;0.00;0.00;0.62;1.40;0.70;;;20.10;21.40;;;;;;2264397;61;20438;-61
2023/03/08 02:01:37;0.00;0.00;0.62;0.00;0.00;0.62;1.20;0.60;;;20.10;21.40;;;;;;2264902;61;20407;-59
2023/03/08 02:04:25;0.00;0.00;0.62;0.00;0.00;0.62;1.70;0.90;;;20.10;21.40;;;;;;2265268;61;20515;-58
2023/03/08 02:07:09;0.00;0.00;0.62;0.00;0.00;0.62;1.60;1.00;;;20.10;21.40;;;;;;2264655;61;20415;-59
2023/03/08 02:09:55;0.00;0.00;0.62;0.00;0.00;0.62;1.60;0.90;;;20.10;21.40;;;;;;2264775;61;20359;-59
2023/03/08 02:12:40;0.00;0.00;0.62;0.00;0.00;0.62;2.37;1.07;;;20.10;21.40;;;;;;2264698;61;20395;-61
2023/03/08 02:15:26;0.00;0.00;0.62;0.00;0.00;0.62;1.30;0.80;;;20.10;21.50;;;;;;2264582;61;20410;-57
2023/03/08 02:18:14;0.00;0.00;0.62;0.00;0.00;0.62;1.30;0.80;;;20.10;21.50;;;;;;2265149;61;20388;-61
2023/03/08 02:21:01;0.00;0.00;0.62;0.00;0.00;0.62;1.30;0.70;;;20.00;21.40;;;;;;2264817;61;20440;-59
2023/03/08 02:23:47;0.00;0.00;0.62;0.00;0.00;0.62;1.53;0.77;;;20.00;21.40;;;;;;2264864;61;20384;-61
2023/03/08 02:26:36;0.00;0.00;0.62;0.00;0.00;0.62;1.30;0.70;;;20.10;21.50;;;;;;2265644;61;20363;-59
2023/03/08 02:29:23;0.00;0.00;0.62;0.00;0.00;0.62;1.40;0.80;;;20.00;21.40;;;;;;2264230;61;20598;-59
2023/03/08 02:32:08;0.00;0.00;0.62;0.00;0.00;0.62;1.30;0.60;;;20.10;21.50;;;;;;2265251;61;20414;-60
2023/03/08 02:34:54;0.00;0.00;0.62;0.00;0.00;0.62;1.33;0.77;;;20.00;21.50;;;;;;2264939;61;20416;-61
2023/03/08 02:37:39;0.00;0.00;0.62;0.00;0.00;0.62;1.40;0.80;;;20.00;21.50;;;;;;2264573;61;20406;-59
2023/03/08 02:40:25;0.00;0.00;0.62;0.00;0.00;0.62;1.57;0.60;;;20.00;21.50;;;;;;2264704;61;20442;-56
2023/03/08 02:43:11;0.00;0.00;0.62;0.00;0.00;0.62;1.40;0.60;;;20.00;21.50;;;;;;2264458;61;20582;-57
2023/03/08 02:45:57;0.00;0.00;0.62;0.00;0.00;0.62;1.40;0.90;;;20.00;22.00;;;;;;2265388;61;20387;-59
2023/03/08 02:48:44;0.00;0.00;0.62;0.00;0.00;0.62;1.20;0.70;;;20.00;21.50;;;;;;2265074;61;20360;-59
2023/03/08 02:51:29;0.00;0.00;0.62;0.00;0.00;0.62;1.50;0.77;;;20.00;21.50;;;;;;2264412;61;20355;-60
2023/03/08 02:54:16;0.00;0.00;0.62;0.00;0.00;0.62;1.20;0.70;;;20.00;22.00;;;;;;2263140;47;20406;-60
2023/03/08 02:57:02;0.00;0.00;0.62;0.00;0.00;0.62;1.40;0.80;;;20.00;21.50;;;;;;2253287;61;20904;-61
2023/03/08 02:59:48;0.00;0.00;0.62;0.00;0.00;0.62;1.43;0.70;;;20.00;21.50;;;;;;2254811;61;20485;-60
2023/03/08 03:02:33;0.00;0.00;0.62;0.00;0.00;0.62;1.40;0.80;;;20.00;21.50;;;;;;2255644;61;20362;-59
2023/03/08 03:05:18;0.00;0.00;0.62;0.00;0.00;0.62;1.70;0.80;;;20.00;21.50;;;;;;2255151;61;20927;-59
2023/03/08 03:08:03;0.00;0.00;0.62;0.00;0.00;0.62;3.40;0.90;;;20.00;21.50;;;;;;2250015;61;20363;-61
2023/03/08 03:10:48;0.00;0.00;0.62;0.00;0.00;0.62;1.77;0.80;;;20.10;21.60;;;;;;2252611;61;20418;-59
2023/03/08 03:13:34;0.00;0.00;0.62;0.00;0.00;0.62;1.40;0.77;;;20.10;21.60;;;;;;2252695;61;20409;-61
2023/03/08 03:16:19;0.00;0.00;0.62;0.00;0.00;0.62;1.40;0.90;;;20.00;21.50;;;;;;2252798;61;20779;-61
2023/03/08 03:19:04;0.00;0.00;0.62;0.00;0.00;0.62;1.33;0.70;;;20.00;21.50;;;;;;2252541;61;20390;-61
2023/03/08 03:21:49;0.00;0.00;0.62;0.00;0.00;0.62;1.30;0.70;;;20.10;21.50;;;;;;2252589;61;20386;-60
2023/03/08 03:24:34;0.00;0.00;0.62;0.00;0.00;0.62;1.50;0.80;;;20.10;21.60;;;;;;2252625;61;20382;-61
2023/03/08 03:27:19;0.00;0.00;0.62;0.00;0.00;0.62;1.43;0.70;;;20.10;21.50;;;;;;2252289;61;20825;-59
2023/03/08 03:30:09;0.00;0.00;0.62;0.00;0.00;0.62;1.40;0.80;;;20.10;21.50;;;;;;2252749;61;20417;-58
2023/03/08 03:32:54;0.00;0.00;0.62;0.00;0.00;0.62;1.70;0.73;;;20.10;21.50;;;;;;2253561;61;20367;-60
2023/03/08 03:35:44;0.00;0.00;0.62;0.00;0.00;0.62;1.30;0.70;;;20.10;21.40;;;;;;2252211;61;20422;-60
2023/03/08 03:38:29;0.00;0.00;0.62;0.00;0.00;0.62;1.47;0.80;;;20.10;21.50;;;;;;2252826;61;20927;-58
2023/03/08 03:41:17;0.00;0.00;0.62;0.00;0.00;0.62;1.30;0.80;;;20.10;21.40;;;;;;2252114;61;20406;-61
2023/03/08 03:44:03;0.00;0.00;0.62;0.00;0.00;0.62;1.30;0.70;;;20.10;21.40;;;;;;2252122;61;20393;-61
2023/03/08 03:46:49;0.00;0.00;0.62;0.00;0.00;0.62;1.50;0.80;;;20.10;21.40;;;;;;2252776;61;20775;-61
2023/03/08 03:49:40;0.00;0.00;0.62;0.00;0.00;0.62;1.30;0.80;;;20.10;21.30;;;;;;2251696;61;20379;-62
2023/03/08 03:52:25;0.00;0.00;0.62;0.00;0.00;0.62;1.30;0.70;;;20.10;21.30;;;;;;2252857;61;20366;-61
2023/03/08 03:55:18;0.00;0.00;0.62;0.00;0.00;0.62;1.30;0.70;;;20.10;21.30;;;;;;2253099;61;20470;-60
2023/03/08 03:58:04;0.00;0.00;0.62;0.00;0.00;0.62;1.70;0.70;;;20.10;21.30;;;;;;2252401;61;20927;-60
2023/03/08 04:00:51;0.00;0.00;0.62;0.00;0.00;0.62;1.30;0.60;;;20.10;21.30;;;;;;2252270;61;20380;-61
2023/03/08 04:03:47;0.00;0.00;0.62;0.00;0.00;0.62;1.30;0.70;;;20.10;21.30;;;;;;2252227;61;20426;-59
2023/03/08 04:06:33;0.00;0.00;0.62;0.00;0.00;0.62;1.30;0.70;;;20.10;21.30;;;;;;2252666;61;20370;-61
2023/03/08 04:09:19;0.00;0.00;0.62;0.00;0.00;0.62;1.77;0.80;;;20.10;21.30;;;;;;2252570;61;20953;-62
2023/03/08 04:12:11;0.00;0.00;0.62;0.00;0.00;0.62;1.50;0.70;;;20.10;21.30;;;;;;2252029;61;20391;-59
2023/03/08 04:14:57;0.00;0.00;0.62;0.00;0.00;0.62;1.30;0.73;;;20.10;21.30;;;;;;2252583;61;20402;-59
2023/03/08 04:17:46;0.00;0.00;0.62;0.00;0.00;0.62;1.30;0.70;;;20.10;21.20;;;;;;2252616;61;20450;-60
2023/03/08 04:20:33;0.00;0.00;0.62;0.00;0.00;0.62;1.30;0.70;;;20.10;21.20;;;;;;2251832;61;20781;-59
2023/03/08 04:23:19;0.00;0.00;0.62;0.00;0.00;0.62;1.30;0.73;;;20.10;21.30;;;;;;2252829;61;20786;-61
2023/03/08 04:26:06;0.00;0.00;0.62;0.00;0.00;0.62;1.47;0.70;;;20.10;21.20;;;;;;2252586;61;20414;-58
2023/03/08 04:28:52;0.00;0.00;0.62;0.00;0.00;0.62;1.30;0.70;;;20.10;21.30;;;;;;2252361;61;20876;-58
2023/03/08 04:31:36;0.00;0.00;0.62;0.00;0.00;0.62;1.30;0.70;;;20.10;21.20;;;;;;2253011;61;20458;-57
2023/03/08 04:34:26;0.00;0.00;0.62;0.00;0.00;0.62;1.20;0.60;;;20.10;21.20;;;;;;2252091;61;20386;-59
2023/03/08 04:37:13;0.00;0.00;0.62;0.00;0.00;0.62;1.30;0.70;;;20.10;21.20;;;;;;2252822;61;20446;-61
2023/03/08 04:40:00;0.00;0.00;0.62;0.00;0.00;0.62;1.60;0.90;;;20.10;21.20;;;;;;2252468;61;20402;-61
2023/03/08 04:42:45;0.00;0.00;0.62;0.00;0.00;0.62;1.30;0.73;;;20.10;21.20;;;;;;2252452;61;20374;-61
2023/03/08 04:45:33;0.00;0.00;0.62;0.00;0.00;0.62;1.30;0.73;;;20.10;21.30;;;;;;2252402;61;20347;-58
2023/03/08 04:48:22;0.00;0.00;0.62;0.00;0.00;0.62;1.40;0.60;;;20.10;21.20;;;;;;2252376;61;20401;-58
2023/03/08 04:51:10;0.00;0.00;0.62;0.00;0.00;0.62;1.20;0.60;;;20.10;21.20;;;;;;2252341;61;20939;-60
2023/03/08 04:53:56;0.00;0.00;0.62;0.00;0.00;0.62;1.30;0.70;;;20.10;21.20;;;;;;2252761;61;20382;-61
2023/03/08 04:56:41;0.00;0.00;0.62;0.00;0.00;0.62;1.30;0.60;;;20.10;21.30;;;;;;2252064;61;20394;-61
2023/03/08 04:59:27;0.00;0.00;0.62;0.00;0.00;0.62;1.30;0.67;;;20.10;21.20;;;;;;2249602;61;20386;-59
2023/03/08 05:02:15;0.00;0.00;0.62;0.00;0.00;0.62;1.20;0.70;;;20.00;21.20;;;;;;2253651;61;20366;-61
2023/03/08 05:05:03;0.00;0.00;0.62;0.00;0.00;0.62;1.20;0.60;;;20.00;21.20;;;;;;2252832;61;20378;-60
2023/03/08 05:07:48;0.00;0.00;0.62;0.00;0.00;0.62;1.73;0.73;;;20.10;21.30;;;;;;2253307;61;20369;-58
2023/03/08 05:10:34;0.00;0.00;0.62;0.00;0.00;0.62;1.30;0.60;;;20.10;21.30;;;;;;2253263;61;20355;-61
2023/03/08 05:13:18;0.00;0.00;0.62;0.00;0.00;0.62;1.30;0.70;;;20.00;21.20;;;;;;2252923;61;20407;-59
2023/03/08 05:16:07;0.00;0.00;0.62;0.00;0.00;0.62;1.50;0.80;;;20.00;21.20;;;;;;2253274;61;20418;-60
2023/03/08 05:18:52;0.00;0.00;0.62;0.00;0.00;0.62;1.30;0.70;;;20.00;21.20;;;;;;2252861;61;21003;-57
2023/03/08 05:21:40;0.00;0.00;0.62;0.00;0.00;0.62;1.20;0.60;;;20.00;21.20;;;;;;2253485;61;20417;-60
2023/03/08 05:24:26;0.00;0.00;0.62;0.00;0.00;0.62;1.40;0.70;;;20.00;21.20;;;;;;2253838;61;20974;-61
2023/03/08 05:27:12;0.00;0.00;0.62;0.00;0.00;0.62;1.30;0.63;;;20.00;21.20;;;;;;2252904;61;21028;-60
2023/03/08 05:29:57;0.00;0.00;0.62;0.00;0.00;0.62;1.20;0.60;;;20.00;21.20;;;;;;2253181;61;20382;-58
2023/03/08 05:32:43;0.00;0.00;0.62;0.00;0.00;0.62;1.20;0.70;;;20.00;21.20;;;;;;2253026;61;20422;-60
2023/03/08 05:35:28;0.00;0.00;0.62;0.00;0.00;0.62;1.33;0.63;;;20.00;21.30;;;;;;2253408;61;20367;-58
2023/03/08 05:38:13;0.00;0.00;0.62;0.00;0.00;0.62;1.20;0.60;;;20.00;21.30;;;;;;2253305;61;20413;-61
2023/03/08 05:41:00;0.00;0.00;0.62;0.00;0.00;0.62;1.23;0.60;;;20.00;21.30;;;;;;2252075;61;20408;-61
2023/03/08 05:43:47;0.00;0.00;0.62;0.00;0.00;0.62;1.37;0.67;;;20.00;21.30;;;;;;2253165;61;20441;-59
2023/03/08 05:46:32;0.00;0.00;0.62;0.00;0.00;0.62;1.30;0.60;;;20.00;21.30;;;;;;2253348;61;20390;-60
2023/03/08 05:49:19;0.00;0.00;0.62;0.00;0.00;0.62;1.30;0.67;;;20.00;21.30;;;;;;2252032;61;20391;-59
2023/03/08 05:52:05;0.00;0.00;0.62;0.00;0.00;0.62;1.30;0.60;;;20.00;21.30;;;;;;2253265;61;20363;-60
2023/03/08 05:54:49;0.00;0.00;0.62;0.00;0.00;0.62;1.20;0.60;;;20.00;21.30;;;;;;2253097;61;20423;-59
2023/03/08 05:57:37;0.00;0.00;0.62;0.00;0.00;0.62;1.20;0.60;;;20.00;21.30;;;;;;2252889;61;20374;-61
2023/03/08 06:00:25;0.00;0.00;0.62;0.00;0.00;0.62;1.20;0.60;;;20.00;21.30;;;;;;2252925;61;20386;-60
2023/03/08 06:03:13;0.00;0.00;0.62;0.00;0.00;0.62;1.30;0.70;;;20.00;21.30;;;;;;2249641;61;20429;-58
2023/03/08 06:06:01;0.00;0.00;0.62;0.00;0.00;0.62;1.47;0.80;;;20.00;21.30;;;;;;2253368;61;20359;-57
2023/03/08 06:08:47;0.00;0.00;0.62;0.00;0.00;0.62;1.20;0.70;;;20.00;21.30;;;;;;2253259;61;20367;-60
2023/03/08 06:11:32;0.00;0.00;0.62;0.00;0.00;0.62;1.40;0.83;;;20.00;21.30;;;;;;2252705;61;20422;-61
2023/03/08 06:14:18;0.00;0.00;0.62;0.00;0.00;0.62;1.40;0.70;;;20.00;21.30;;;;;;2253336;61;20430;-61
2023/03/08 06:17:04;0.00;0.00;0.62;0.00;0.00;0.62;1.30;0.60;;;20.00;21.30;;;;;;2252853;61;20523;-61
2023/03/08 06:19:52;0.00;0.00;0.62;0.00;0.00;0.62;1.23;0.60;;;19.90;21.30;;;;;;2251995;61;20390;-58
2023/03/08 06:22:37;0.00;0.00;0.62;0.00;0.00;0.62;1.20;0.63;;;19.90;21.30;;;;;;2253243;61;20362;-59
2023/03/08 06:25:21;0.00;0.00;0.62;0.00;0.00;0.62;1.23;0.60;;;19.90;21.30;;;;;;2252384;61;20382;-59
2023/03/08 06:28:07;0.00;0.00;0.62;0.00;0.00;0.62;1.20;0.60;;;19.90;21.30;;;;;;2252881;61;20386;-61
2023/03/08 06:30:56;0.00;0.00;0.62;0.00;0.00;0.62;1.70;0.70;;;20.00;21.30;;;;;;2250366;61;20414;-62
2023/03/08 06:33:43;0.00;0.00;0.62;0.00;0.00;0.62;1.20;0.60;;;20.00;21.40;;;;;;2252228;61;20386;-61
2023/03/08 06:36:32;0.00;0.00;0.62;0.00;0.00;0.62;1.30;0.60;;;19.90;21.30;;;;;;2253360;61;20421;-60
2023/03/08 06:39:17;0.00;0.00;0.62;0.00;0.00;0.62;1.30;0.70;;;19.90;21.30;;;;;;2252423;61;20378;-59
2023/03/08 06:42:02;0.00;0.00;0.62;0.00;0.00;0.62;1.87;0.90;;;20.00;21.90;;;;;;2253144;61;20366;-61
2023/03/08 06:44:47;0.00;0.00;0.62;0.00;0.00;0.62;1.53;0.83;;;20.00;21.40;;;;;;2252855;61;20389;-61
2023/03/08 06:47:33;0.00;0.00;0.62;0.00;0.00;0.62;1.43;0.70;;;19.90;21.30;;;;;;2252290;61;20402;-63
2023/03/08 06:50:19;0.00;0.00;0.62;0.00;0.00;0.62;1.30;0.70;;;19.90;21.30;;;;;;2252761;61;20362;-57
2023/03/08 06:53:08;0.00;0.00;0.62;0.00;0.00;0.62;1.73;0.90;;;19.90;21.30;;;;;;2252763;61;20458;-61
2023/03/08 06:56:06;0.00;0.00;0.62;0.00;0.00;0.62;1.53;0.80;;;19.90;21.30;;;;;;2252567;61;20354;-59
2023/03/08 06:58:52;0.00;0.00;0.62;0.00;0.00;0.62;1.33;0.70;;;19.90;21.30;;;;;;2252143;61;20927;-58
2023/03/08 07:01:37;0.00;0.00;0.62;0.00;0.00;0.62;1.43;0.93;;;19.90;21.30;;;;;;2252992;61;20379;-58
2023/03/08 07:04:21;0.00;0.00;0.62;0.00;0.00;0.62;1.70;1.00;;;19.90;21.30;;;;;;2252848;61;20530;-58
2023/03/08 07:07:07;0.00;0.00;0.62;0.00;0.00;0.62;1.60;0.80;;;19.90;21.30;;;;;;2253078;61;20355;-62
2023/03/08 07:09:52;0.00;0.00;0.62;0.00;0.00;0.62;1.70;0.90;;;19.90;21.30;;;;;;2252303;61;20912;-62
2023/03/08 07:12:39;0.00;0.00;0.62;0.00;0.00;0.62;1.63;1.00;;;19.90;21.30;;;;;;2252957;61;20367;-62
2023/03/08 07:15:24;0.00;0.00;0.62;0.00;0.00;0.62;1.50;0.90;;;19.90;21.40;;;;;;2253095;61;20378;-62
2023/03/08 07:18:09;0.00;0.00;0.62;0.00;0.00;0.62;1.60;1.10;;;19.90;21.30;;;;;;2252973;61;20713;-61
2023/03/08 07:20:55;0.00;0.00;0.62;0.00;0.00;0.62;1.67;1.00;;;19.90;21.30;;;;;;2252884;61;20362;-61
2023/03/08 07:23:41;0.00;0.00;0.62;0.00;0.00;0.62;2.40;1.40;;;19.90;21.30;;;;;;2252567;61;20383;-62
2023/03/08 07:26:26;0.00;0.00;0.62;0.00;0.00;0.62;1.70;1.10;;;19.90;21.40;;;;;;2252848;61;20382;-60
2023/03/08 07:29:11;0.00;0.00;0.62;0.00;0.00;0.62;1.90;1.23;;;19.90;21.40;;;;;;2252997;61;20359;-61
2023/03/08 07:31:55;0.00;0.00;0.62;0.00;0.00;0.62;2.00;1.10;;;19.90;21.40;;;;;;2252584;61;20418;-60
2023/03/08 07:34:40;0.00;0.00;0.62;0.00;0.00;0.62;1.70;1.10;;;19.90;21.40;;;;;;2252977;61;20403;-61
2023/03/08 07:37:25;0.00;0.00;0.62;0.00;0.00;0.62;2.70;1.43;;;19.90;21.40;;;;;;2253206;61;20940;-60
2023/03/08 07:40:15;0.00;0.00;0.62;0.00;0.00;0.62;1.93;1.20;;;19.90;21.40;;;;;;2251910;61;20411;-61
2023/03/08 07:42:59;0.00;0.00;0.62;0.00;0.00;0.62;2.23;1.50;;;19.90;21.40;;;;;;2252898;61;20366;-60
2023/03/08 07:46:05;0.00;0.00;0.62;0.00;0.00;0.62;1.63;1.07;;;19.90;21.40;;;;;;2251011;61;20445;-62
2023/03/08 07:48:52;0.00;0.00;0.62;0.00;0.00;0.62;2.20;1.20;;;19.90;21.40;;;;;;2252902;61;20362;-62
2023/03/08 07:51:37;0.00;0.00;0.62;0.00;0.00;0.62;2.03;1.17;;;19.90;21.40;;;;;;2253070;61;20873;-61
2023/03/08 07:54:22;0.00;0.00;0.62;0.00;0.00;0.62;2.20;1.40;;;19.90;21.40;;;;;;2252509;61;20799;-62
2023/03/08 07:57:12;0.00;0.00;0.62;0.00;0.00;0.62;2.50;1.40;;;19.90;21.40;;;;;;2252786;61;20767;-61
2023/03/08 07:59:57;0.00;0.00;0.62;0.00;0.00;0.62;2.40;1.60;;;19.90;21.40;;;;;;2252183;61;20813;-61
2023/03/08 08:02:42;0.00;0.00;0.62;0.00;0.00;0.62;2.60;1.77;;;19.90;21.40;;;;;;2252517;61;20417;-61
2023/03/08 08:05:27;0.00;0.00;0.62;0.00;0.00;0.62;3.17;2.23;;;20.00;21.50;;;;;;2253193;61;20371;-58
2023/03/08 08:08:12;0.00;0.00;0.62;0.00;0.00;0.62;2.83;1.90;;;20.00;21.40;;;;;;2252540;61;20362;-61
2023/03/08 08:10:58;0.00;0.00;0.62;0.00;0.00;0.62;2.50;1.77;;;20.00;21.40;;;;;;2252497;61;20421;-61
2023/03/08 08:13:45;0.00;0.00;0.62;0.00;0.00;0.62;2.27;1.73;;;20.00;21.40;;;;;;2253246;61;20895;-60
2023/03/08 08:16:31;0.00;0.00;0.62;0.00;0.00;0.62;3.43;1.93;;;20.00;21.40;;;;;;2252232;61;20367;-62
2023/03/08 08:19:16;0.00;0.00;0.62;0.00;0.00;0.62;3.67;2.23;;;20.00;21.40;;;;;;2252585;61;20552;-61
2023/03/08 08:22:02;0.00;0.00;0.62;0.00;0.00;0.62;2.63;1.83;;;20.00;21.40;;;;;;2252910;61;20388;-62
2023/03/08 08:24:47;0.00;0.00;0.62;0.00;0.00;0.62;2.60;2.10;;;20.00;21.50;;;;;;2252543;61;20915;-61
2023/03/08 08:27:31;0.00;0.00;0.62;0.00;0.00;0.62;3.23;2.27;;;20.00;21.40;;;;;;2253291;61;20458;-62
2023/03/08 08:30:18;0.00;0.00;0.62;0.00;0.00;0.62;3.60;2.67;;;20.00;21.40;;;;;;2252281;61;20355;-62
2023/03/08 08:33:03;0.00;0.00;0.62;0.00;0.00;0.62;2.80;2.37;;;20.00;22.00;;;;;;2252698;61;20367;-61
2023/03/08 08:35:47;0.00;0.00;0.62;0.00;0.00;0.62;3.50;2.70;;;20.00;21.40;;;;;;2253552;61;20362;-62
2023/03/08 08:38:33;0.00;0.00;0.62;0.00;0.00;0.62;4.37;2.83;;;20.00;21.40;;;;;;2252827;61;20390;-56
2023/03/08 08:41:20;0.00;0.00;0.62;0.00;0.00;0.62;5.10;3.33;;;20.00;21.50;;;;;;2253603;61;20366;-59
2023/03/08 08:44:06;0.00;0.00;0.62;0.00;0.00;0.62;4.73;3.43;;;20.00;21.50;;;;;;2253528;61;20844;-61
2023/03/08 08:46:52;0.00;0.00;0.62;0.00;0.00;0.62;3.27;2.70;;;20.00;21.40;;;;;;2252932;61;20366;-61
2023/03/08 08:49:38;0.00;0.00;0.62;0.00;0.00;0.62;3.80;3.13;;;20.00;21.50;;;;;;2253365;61;20362;-61
2023/03/08 08:52:22;0.00;0.00;0.62;0.00;0.00;0.62;3.80;3.07;;;20.00;21.40;;;;;;2252990;61;20362;-61
2023/03/08 08:55:08;0.00;0.00;0.62;0.00;0.00;0.62;4.93;3.97;;;20.00;21.40;;;;;;2253132;61;20386;-61
2023/03/08 08:57:53;0.00;0.00;0.62;0.00;0.00;0.62;4.30;3.27;;;20.00;21.50;;;;;;2253699;61;20366;-60
2023/03/08 09:00:37;0.00;0.00;0.62;0.00;0.00;0.62;3.57;2.80;;;20.00;21.40;;;;;;2252369;61;20449;-59
2023/03/08 09:03:23;0.00;0.00;0.62;0.00;0.00;0.62;4.70;4.07;;;20.00;21.50;;;;;;2253527;61;20410;-61
2023/03/08 09:06:08;0.00;0.00;0.62;0.00;0.00;0.62;4.13;2.90;;;20.00;21.50;;;;;;2253491;61;20900;-58
2023/03/08 09:08:55;0.00;0.00;0.62;0.00;0.00;0.62;4.67;3.80;;;20.00;21.50;;;;;;2252546;61;20363;-62
2023/03/08 09:11:40;0.00;0.00;0.62;0.00;0.00;0.62;4.17;3.30;;;20.00;21.40;;;;;;2253635;61;20358;-60
2023/03/08 09:14:25;0.00;0.00;0.62;0.00;0.00;0.62;3.80;2.90;;;20.00;21.40;;;;;;2253192;61;20467;-62
2023/03/08 09:17:10;0.00;0.00;0.62;0.00;0.00;0.62;5.53;3.30;;;20.00;21.40;;;;;;2253389;61;20394;-61
2023/03/08 09:19:56;0.00;0.00;0.62;0.00;0.00;0.62;4.17;3.30;;;20.00;21.40;;;;;;2253209;61;20378;-61
2023/03/08 09:22:41;0.00;0.00;0.62;0.00;0.00;0.62;5.23;3.37;;;20.00;21.50;;;;;;2252818;61;20406;-61
2023/03/08 09:25:26;0.00;0.00;0.62;0.00;0.00;0.62;4.67;3.60;;;20.00;21.40;;;;;;2253264;61;20434;-62
2023/03/08 09:28:10;0.00;0.00;0.62;0.00;0.00;0.62;3.70;2.80;;;20.00;21.40;;;;;;2253604;61;20366;-61
2023/03/08 09:30:55;0.00;0.00;0.62;0.00;0.00;0.62;4.20;3.57;;;20.00;21.50;;;;;;2252323;61;20359;-56
2023/03/08 09:33:42;0.00;0.00;0.62;0.00;0.00;0.62;5.43;3.70;;;20.00;21.40;;;;;;2253173;61;20438;-57
2023/03/08 09:36:28;0.00;0.00;0.62;0.00;0.00;0.62;4.67;3.40;;;20.00;21.40;;;;;;2252890;61;20363;-62
2023/03/08 09:39:13;0.00;0.00;0.62;0.00;0.00;0.62;4.47;3.20;;;20.00;21.40;;;;;;2252423;61;20406;-62
2023/03/08 09:42:01;0.00;0.00;0.62;0.00;0.00;0.62;5.00;3.37;;;20.00;21.50;;;;;;2253122;61;20455;-60
2023/03/08 09:45:00;0.00;0.00;0.62;0.00;0.00;0.62;5.20;4.00;;;20.00;21.40;;;;;;2252770;61;20927;-59
2023/03/08 09:47:49;0.00;0.00;0.62;0.00;0.00;0.62;4.27;3.30;;;20.00;21.40;;;;;;2253378;61;20455;-62
2023/03/08 09:50:44;0.00;0.00;0.62;0.00;0.00;0.62;2.80;2.53;;;20.10;21.50;;;;;;2252861;61;20390;-62
2023/03/08 09:53:39;0.00;0.00;0.62;0.00;0.00;0.62;4.10;3.40;;;20.00;21.50;;;;;;2252469;61;20422;-62
2023/03/08 09:56:30;0.00;0.00;0.62;0.00;0.00;0.62;4.13;3.07;;;20.00;21.50;;;;;;2253158;61;20382;-62
2023/03/08 09:59:29;0.00;0.00;0.62;0.00;0.00;0.62;4.30;2.93;;;20.00;21.40;;;;;;2252262;61;20387;-60
2023/03/08 10:02:28;0.00;0.00;0.62;0.00;0.00;0.62;4.47;3.27;;;20.10;21.50;;;;;;2253146;61;20366;-62
2023/03/08 10:05:22;0.00;0.00;0.62;0.00;0.00;0.62;3.67;3.27;;;20.10;21.50;;;;;;2252916;61;20395;-60
2023/03/08 10:08:14;0.00;0.00;0.62;0.00;0.00;0.62;5.00;3.40;;;20.00;21.50;;;;;;2252153;61;20886;-62
2023/03/08 10:11:06;0.00;0.00;0.62;0.00;0.00;0.62;4.57;3.63;;;20.10;21.50;;;;;;2252205;61;20856;-61
2023/03/08 10:13:54;0.00;0.00;0.62;0.00;0.00;0.62;3.90;3.10;;;20.10;21.50;;;;;;2252822;61;20403;-61
2023/03/08 10:16:44;0.00;0.00;0.62;0.00;0.00;0.62;4.73;3.50;;;20.10;21.50;;;;;;2252681;61;20362;-62
2023/03/08 10:19:36;0.00;0.00;0.62;0.00;0.00;0.62;4.17;3.47;;;20.10;21.50;;;;;;2252548;61;20438;-62
2023/03/08 10:22:26;0.00;0.00;0.62;0.00;0.00;0.62;3.80;2.93;;;20.10;21.50;;;;;;2252363;61;20394;-62
2023/03/08 10:25:21;0.00;0.00;0.62;0.00;0.00;0.62;4.13;2.90;;;20.10;21.50;;;;;;2252370;61;20386;-59
2023/03/08 10:28:13;0.00;0.00;0.62;0.00;0.00;0.62;4.40;3.30;;;20.10;21.60;;;;;;2252826;61;21276;-60
2023/03/08 10:31:03;0.00;0.00;0.62;0.00;0.00;0.62;4.20;3.10;;;20.10;21.50;;;;;;2252516;61;20413;-60
2023/03/08 10:33:52;0.00;0.00;0.62;0.00;0.00;0.62;4.27;3.10;;;20.10;21.50;;;;;;2252678;61;20437;-62
2023/03/08 10:36:49;0.00;0.00;0.62;0.00;0.00;0.62;3.43;2.63;;;20.10;21.50;;;;;;2252447;61;20358;-62
2023/03/08 10:39:35;0.00;0.00;0.62;0.00;0.00;0.62;4.77;3.50;;;20.10;21.50;;;;;;2252338;61;20387;-60
2023/03/08 10:42:23;0.00;0.00;0.62;0.00;0.00;0.62;3.50;2.97;;;20.10;21.50;;;;;;2253181;61;20378;-64
2023/03/08 10:45:19;0.00;0.00;0.62;0.00;0.00;0.62;3.53;3.07;;;20.10;21.60;;;;;;2252073;61;20466;-61
2023/03/08 10:48:05;0.00;0.00;0.62;0.00;0.00;0.62;3.90;3.13;;;20.10;21.50;;;;;;2252848;61;20410;-61
2023/03/08 10:50:59;0.00;0.00;0.62;0.00;0.00;0.62;4.67;3.20;;;20.10;21.50;;;;;;2252357;61;20358;-61
2023/03/08 10:53:53;0.00;0.00;0.62;0.00;0.00;0.62;4.37;3.33;;;20.10;21.50;;;;;;2252181;61;20387;-59
2023/03/08 10:56:43;0.00;0.00;0.62;0.00;0.00;0.62;3.37;2.93;;;20.10;21.50;;;;;;2252804;61;20447;-59
2023/03/08 10:59:31;0.00;0.00;0.62;0.00;0.00;0.62;4.60;3.60;;;20.10;21.50;;;;;;2251748;61;20394;-57